Aérodrome :
LOGIN :

S'inscrire | Disclaimer

   EN    FR    IT 

 










Légende :    VFR   VFR Marginal   IFR   IFR Intensif   IFR Très Intensif
Visi : 
Plafond : 
>= 8 km
>= 3000ft
5 à 8 km
1000 à 3000 ft
1500m à 5 km
500 à 1000 ft
800 à 1500m
200 à 500 ft
< 800m
< 200 ft
Symboles :   Orages  Brouillard  Fortes neiges  Fortes précipitations  Vent > 20 kt
SIGMETs :   Divers  Orages  Givrage  Turbulence  Onde Orograph.  Cendres Volcan.






- Altitude de l'aérodrome : 140 ft
- Code IATA : NYO


ESKN - Skavsta

DERNIER METAR :
  • 251220Z 10016KT 9999 BKN020 03/M01 Q0990 R08/09//95

METARs EXPIRÉS :
  • 251150Z 11015KT 9999 VCSH BKN019 04/M01 Q0991 R08/09//95
  • 251120Z 10014KT 9999 BKN018 03/M00 Q0991 R08/09//95
  • 251050Z 11016KT 9999 BKN019 04/M01 Q0991 R08/09//95
  • 251020Z 09009KT 9999 SCT019 BKN098 03/00 Q0992 R08/09//95
  • 250950Z 07009KT 9999 FEW015 SCT100 02/M00 Q0992 R08/09//95

TAF TAF ESKN
Valide du 25 à 12h jusqu'au 26 à 12h UTC


251130Z 2512/2612 10015KT 9999 BKN020
PROB40 2512/2516 2500 -SNRA BKN014
BECMG 2516/2518 4000 -SN
TEMPO 2518/2612 1400 SN VV012
BECMG 2520/2522 05015G25KT



MET'MAP, la Météo Aéronautique d'un coup d'oeil ! - Copyright ORBIFLY Décembre 2007 - Disclaimer

ORBIFLY MET'MAP TEAM :

Programmation & Développement : Alexandra Zaïnal
Sur une idée originale de : Baudouin d'Aumeries
Assistance à la programmation : Marc-Olivier Méhu
Soutien technique & logistique : Manuel Goepfert

Contact : metmap@orbifly.com




SOURCES & CREDITS :

   NOAA